Time;durP1;ratioP1;P1;durP2;ratioP2;P2;SDS_P1;SDS_P2;PMS_P1;PMS_P2;Temp;Humidity;BMP_temperature;BMP_pressure;BME280_temperature;BME280_humidity;BME280_pressure;Samples;Min_cycle;Max_cycle;Signal;HPM_P1;HPM_P2
2022/12/14 00:00:10;;;;;;;22.97;12.07;;;;;;;-6.87;88.95;100081.88;5047891;28;20226;-85
2022/12/14 00:02:37;;;;;;;24.03;11.83;;;;;;;-6.89;88.67;100076.69;5045971;28;20255;-85
2022/12/14 00:05:03;;;;;;;36.47;14.50;;;;;;;-6.90;89.04;100079.28;5043071;28;20212;-82
2022/12/14 00:07:30;;;;;;;46.33;16.97;;;;;;;-6.91;88.92;100069.78;5046177;28;20201;-85
2022/12/14 00:09:57;;;;;;;49.73;18.77;;;;;;;-6.90;88.99;100067.19;5049839;28;20645;-84
2022/12/14 00:12:23;;;;;;;34.03;14.30;;;;;;;-6.92;88.77;100061.16;5053350;28;20206;-85
2022/12/14 00:14:49;;;;;;;30.57;14.83;;;;;;;-6.91;88.29;100057.69;5046042;28;20553;-85
2022/12/14 00:17:17;;;;;;;27.77;13.33;;;;;;;-6.92;88.62;100055.13;5047352;28;20208;-85
2022/12/14 00:19:44;;;;;;;34.20;13.83;;;;;;;-6.91;89.07;100062.00;5044182;28;20230;-86
2022/12/14 00:22:11;;;;;;;28.13;12.53;;;;;;;-6.91;89.01;100056.84;5042674;28;20248;-83
2022/12/14 00:24:37;;;;;;;25.40;10.70;;;;;;;-6.91;88.95;100057.69;5045164;28;20608;-84
2022/12/14 00:27:04;;;;;;;25.00;11.33;;;;;;;-6.90;88.80;100055.97;5055016;28;20571;-86
2022/12/14 00:29:30;;;;;;;24.03;11.40;;;;;;;-6.89;88.48;100055.97;5048970;28;20221;-84
2022/12/14 00:31:57;;;;;;;22.27;11.23;;;;;;;-6.89;89.22;100053.38;5049318;28;20210;-84
2022/12/14 00:34:24;;;;;;;20.93;10.33;;;;;;;-6.90;89.13;100045.63;5044218;28;20203;-84
2022/12/14 00:36:51;;;;;;;18.17;9.83;;;;;;;-6.90;88.72;100046.50;5045127;28;20209;-85
2022/12/14 00:39:18;;;;;;;17.53;10.57;;;;;;;-6.90;88.71;100043.91;5047625;28;20225;-83
2022/12/14 00:41:44;;;;;;;18.07;9.63;;;;;;;-6.88;88.78;100036.13;5047407;28;20206;-85
2022/12/14 00:44:11;;;;;;;16.93;9.33;;;;;;;-6.88;88.99;100042.16;5048189;28;20213;-85
2022/12/14 00:46:37;;;;;;;16.33;9.53;;;;;;;-6.87;88.96;100037.84;5049505;28;20213;-85
2022/12/14 00:49:04;;;;;;;18.17;9.67;;;;;;;-6.87;89.42;100037.84;5038956;28;20221;-85
2022/12/14 00:51:31;;;;;;;17.80;9.80;;;;;;;-6.89;89.24;100034.41;5047029;28;20672;-85
2022/12/14 00:53:58;;;;;;;18.27;10.23;;;;;;;-6.88;89.64;100036.13;5039467;28;20210;-84
2022/12/14 00:56:24;;;;;;;21.40;10.90;;;;;;;-6.89;89.50;100021.47;5045401;28;20209;-85
2022/12/14 00:58:52;;;;;;;20.50;9.53;;;;;;;-6.90;89.07;100024.91;5051722;28;20221;-86
2022/12/14 01:01:21;;;;;;;18.33;9.93;;;;;;;-6.93;88.96;100014.56;5046875;28;20237;-85
2022/12/14 01:04:15;;;;;;;16.93;9.63;;;;;;;-6.92;89.28;100024.06;5044717;28;20712;-84
2022/12/14 01:06:49;;;;;;;18.53;10.20;;;;;;;-6.93;88.88;100023.19;5044872;28;20206;-86
2022/12/14 01:09:15;;;;;;;22.23;9.73;;;;;;;-6.94;88.73;100026.66;5056226;28;20230;-85
2022/12/14 01:11:43;;;;;;;16.50;9.17;;;;;;;-6.94;88.76;100025.78;5047461;28;20205;-84
2022/12/14 01:14:12;;;;;;;14.50;8.40;;;;;;;-6.95;89.09;100032.69;5056361;28;20205;-85
2022/12/14 01:16:38;;;;;;;15.80;8.63;;;;;;;-6.95;89.23;100022.34;5046543;28;20592;-84
2022/12/14 01:19:06;;;;;;;15.63;8.17;;;;;;;-6.95;88.97;100031.81;5054292;28;20715;-83
2022/12/14 01:21:33;;;;;;;16.13;8.90;;;;;;;-6.95;88.98;100029.22;5047946;28;20776;-85
2022/12/14 01:24:02;;;;;;;13.20;7.30;;;;;;;-6.96;89.51;100023.19;5054306;28;20233;-85
2022/12/14 01:26:32;;;;;;;16.47;8.93;;;;;;;-6.95;89.69;100021.47;5047477;28;20202;-84
2022/12/14 01:28:59;;;;;;;13.87;8.23;;;;;;;-6.95;89.57;100021.47;5051613;28;20301;-85
2022/12/14 01:31:28;;;;;;;21.73;9.87;;;;;;;-6.96;89.56;100015.44;5048290;28;20291;-85
2022/12/14 01:33:55;;;;;;;16.60;9.60;;;;;;;-6.96;89.47;100011.97;5046221;28;20206;-85
2022/12/14 01:36:23;;;;;;;22.43;10.60;;;;;;;-6.95;89.25;100018.88;5042682;28;20203;-83
2022/12/14 01:38:54;;;;;;;14.83;8.70;;;;;;;-6.95;89.87;100013.69;5050316;28;20222;-82
2022/12/14 01:41:25;;;;;;;14.27;8.07;;;;;;;-6.96;89.18;100007.66;5053931;28;20218;-85
2022/12/14 01:43:54;;;;;;;16.37;8.07;;;;;;;-6.96;89.76;100004.22;5044013;28;20194;-85
2022/12/14 01:46:26;;;;;;;13.30;7.43;;;;;;;-6.97;89.33;100000.75;5049366;28;20201;-84
2022/12/14 01:48:58;;;;;;;15.20;7.90;;;;;;;-6.98;89.68;99998.19;5048618;28;20724;-84
2022/12/14 01:51:26;;;;;;;16.10;8.33;;;;;;;-6.99;89.53;99996.50;5041695;28;20209;-83
2022/12/14 01:53:54;;;;;;;12.80;7.30;;;;;;;-7.00;89.23;100000.81;5050143;28;20202;-82
2022/12/14 01:56:21;;;;;;;15.10;7.83;;;;;;;-6.99;89.79;99993.91;5047219;28;20236;-83
2022/12/14 01:58:49;;;;;;;16.23;8.07;;;;;;;-7.01;89.82;99999.94;5050153;28;20236;-83
2022/12/14 02:01:16;;;;;;;15.67;8.43;;;;;;;-7.03;89.51;99996.50;5056405;28;20248;-83
2022/12/14 02:03:46;;;;;;;12.70;7.87;;;;;;;-7.05;89.21;99981.81;5046557;28;20208;-83
2022/12/14 02:06:17;;;;;;;12.70;7.50;;;;;;;-7.07;89.79;99981.81;5049270;28;20602;-83
2022/12/14 02:08:45;;;;;;;14.97;7.80;;;;;;;-7.10;89.62;99976.66;5052051;28;20225;-86
2022/12/14 02:11:12;;;;;;;15.50;7.63;;;;;;;-7.08;89.27;99981.81;5048326;28;20209;-84
2022/12/14 02:13:40;;;;;;;14.67;8.17;;;;;;;-7.10;89.64;99968.03;5035717;28;20263;-84
2022/12/14 02:16:08;;;;;;;13.83;8.00;;;;;;;-7.10;89.61;99973.22;5055047;28;20258;-84
2022/12/14 02:18:35;;;;;;;13.37;7.63;;;;;;;-7.12;89.13;99970.63;5039294;28;20692;-83
2022/12/14 02:21:18;;;;;;;14.73;7.50;;;;;;;-7.12;89.15;99975.78;5052315;28;20232;-85
2022/12/14 02:24:17;;;;;;;15.33;8.37;;;;;;;-7.16;89.38;99968.91;5044656;28;20202;-85
2022/12/14 02:26:59;;;;;;;13.13;7.77;;;;;;;-7.23;89.15;99968.94;5046381;28;20605;-85
2022/12/14 02:29:45;;;;;;;16.10;8.47;;;;;;;-7.31;89.21;99970.66;5046134;28;20619;-84
2022/12/14 02:32:25;;;;;;;15.60;8.73;;;;;;;-7.33;89.42;99965.50;5041103;28;20202;-84
2022/12/14 02:34:59;;;;;;;20.20;8.70;;;;;;;-7.36;89.31;99966.38;5051727;28;20208;-84
2022/12/14 02:37:34;;;;;;;17.07;9.30;;;;;;;-7.37;88.88;99964.66;5048062;28;20228;-85
2022/12/14 02:40:13;;;;;;;15.57;10.67;;;;;;;-7.38;89.23;99957.78;5046699;28;20708;-86
2022/12/14 02:42:48;;;;;;;19.97;9.60;;;;;;;-7.39;88.89;99958.63;5053052;28;20208;-85
2022/12/14 02:45:25;;;;;;;16.97;9.67;;;;;;;-7.38;89.36;99952.59;5055361;28;20284;-85
2022/12/14 02:47:55;;;;;;;17.50;8.97;;;;;;;-7.37;89.10;99935.34;5045615;28;20595;-85
2022/12/14 02:50:26;;;;;;;17.47;9.83;;;;;;;-7.38;89.19;99938.81;5053044;28;20232;-85
2022/12/14 02:53:01;;;;;;;19.07;10.03;;;;;;;-7.36;89.36;99934.50;5049747;28;20210;-87
2022/12/14 02:55:32;;;;;;;18.30;10.23;;;;;;;-7.33;89.53;99928.41;5037926;28;20260;-84
2022/12/14 02:58:03;;;;;;;16.07;9.67;;;;;;;-7.33;89.54;99939.63;5044702;28;20211;-85
2022/12/14 03:00:34;;;;;;;20.80;10.13;;;;;;;-7.31;89.59;99924.97;5042526;28;20234;-84
2022/12/14 03:03:03;;;;;;;17.00;9.97;;;;;;;-7.29;89.43;99925.81;5036532;28;20202;-85
2022/12/14 03:05:29;;;;;;;17.67;9.07;;;;;;;-7.28;89.49;99909.44;5044751;28;20206;-85
2022/12/14 03:07:59;;;;;;;16.67;8.50;;;;;;;-7.28;89.68;99912.03;5054881;28;20240;-86
2022/12/14 03:10:36;;;;;;;15.97;8.87;;;;;;;-7.27;89.94;99918.94;5056287;28;20229;-87
2022/12/14 03:13:11;;;;;;;18.63;9.60;;;;;;;-7.25;90.15;99908.56;5047668;28;20206;-85
2022/12/14 03:15:42;;;;;;;14.80;8.60;;;;;;;-7.25;89.92;99904.25;5043837;28;20205;-86
2022/12/14 03:18:12;;;;;;;13.87;8.73;;;;;;;-7.24;90.14;99907.72;5049093;28;20210;-85
2022/12/14 03:20:42;;;;;;;16.47;8.47;;;;;;;-7.24;89.72;99900.81;5052244;28;20229;-86
2022/12/14 03:23:12;;;;;;;18.37;10.00;;;;;;;-7.23;89.56;99905.13;5053139;28;20255;-86
2022/12/14 03:25:43;;;;;;;20.80;11.23;;;;;;;-7.23;90.06;99897.38;5047452;28;20585;-85
2022/12/14 03:28:16;;;;;;;19.27;9.87;;;;;;;-7.22;90.19;99886.16;5047273;28;20198;-83
2022/12/14 03:30:49;;;;;;;17.30;8.80;;;;;;;-7.22;89.85;99887.88;5049681;28;20225;-85
2022/12/14 03:33:20;;;;;;;14.40;8.50;;;;;;;-7.23;90.02;99873.22;5048334;28;20214;-85
2022/12/14 03:35:54;;;;;;;16.53;9.17;;;;;;;-7.25;89.90;99883.56;5050883;28;20213;-85
2022/12/14 03:38:26;;;;;;;14.87;8.13;;;;;;;-7.25;89.57;99883.56;5048423;28;20197;-86
2022/12/14 03:41:02;;;;;;;15.00;8.97;;;;;;;-7.25;89.92;99872.34;5050920;28;20574;-86
2022/12/14 03:43:36;;;;;;;19.30;10.03;;;;;;;-7.25;90.40;99875.81;5049381;28;20212;-86
2022/12/14 03:46:10;;;;;;;16.47;8.60;;;;;;;-7.25;90.07;99864.59;5048828;28;20201;-85
2022/12/14 03:48:43;;;;;;;18.23;8.87;;;;;;;-7.25;90.33;99869.78;5054046;28;20863;-84
2022/12/14 03:51:17;;;;;;;15.20;8.30;;;;;;;-7.25;89.61;99864.59;5047234;28;20297;-85
2022/12/14 03:53:49;;;;;;;13.70;8.23;;;;;;;-7.27;90.32;99859.44;5045489;28;20224;-83
2022/12/14 03:56:22;;;;;;;19.60;9.33;;;;;;;-7.28;90.08;99868.06;5050515;28;20206;-84
2022/12/14 03:59:00;;;;;;;16.93;9.37;;;;;;;-7.29;90.32;99862.88;5040471;28;20236;-86
2022/12/14 04:01:38;;;;;;;15.03;8.93;;;;;;;-7.30;90.43;99859.44;5047234;28;20311;-83
2022/12/14 04:04:13;;;;;;;14.17;8.07;;;;;;;-7.30;90.15;99859.44;5046946;28;20202;-86
2022/12/14 04:06:48;;;;;;;18.17;8.57;;;;;;;-7.32;90.04;99849.97;5056146;28;20209;-86
2022/12/14 04:09:30;;;;;;;14.80;7.90;;;;;;;-7.33;89.32;99845.66;5042539;28;20229;-85
2022/12/14 04:20:32;;;;;;;14.90;8.17;;;;;;;-7.43;89.31;99834.50;5042765;28;20233;-86
2022/12/14 04:23:04;;;;;;;17.43;8.67;;;;;;;-7.45;89.52;99825.88;5050438;28;20447;-86
2022/12/14 04:31:07;;;;;;;13.43;8.30;;;;;;;-7.51;89.83;99834.50;5026055;28;20711;-84
2022/12/14 04:33:48;;;;;;;17.83;9.03;;;;;;;-7.53;89.80;99838.84;5043352;28;20572;-84
2022/12/14 04:36:21;;;;;;;16.33;8.43;;;;;;;-7.55;89.46;99830.25;5040552;28;20564;-85
2022/12/14 04:38:53;;;;;;;16.93;8.93;;;;;;;-7.56;89.17;99836.28;5046283;28;20736;-86
2022/12/14 04:41:24;;;;;;;17.20;8.63;;;;;;;-7.57;89.69;99831.09;5045671;28;20220;-85
2022/12/14 04:43:56;;;;;;;17.10;9.03;;;;;;;-7.59;89.06;99827.66;5056778;28;20198;-84
2022/12/14 04:46:26;;;;;;;14.97;9.13;;;;;;;-7.61;89.13;99824.22;5053418;28;20216;-86
2022/12/14 04:49:01;;;;;;;16.47;8.90;;;;;;;-7.63;89.58;99826.81;5056559;28;20232;-84
2022/12/14 04:51:32;;;;;;;17.80;8.63;;;;;;;-7.65;89.34;99822.50;5050429;28;20201;-83
2022/12/14 04:54:01;;;;;;;18.93;9.20;;;;;;;-7.67;89.35;99817.34;5049226;28;20210;-84
2022/12/14 04:56:34;;;;;;;17.87;8.70;;;;;;;-7.71;88.95;99815.66;5050044;28;20202;-83
2022/12/14 04:59:02;;;;;;;15.13;8.20;;;;;;;-7.78;88.65;99807.03;5053829;28;20221;-84
2022/12/14 05:01:38;;;;;;;15.10;8.73;;;;;;;-7.84;88.90;99795.84;5052687;28;20224;-84
2022/12/14 05:04:13;;;;;;;15.30;8.50;;;;;;;-7.87;88.85;99794.13;5046891;28;20934;-83
2022/12/14 05:06:48;;;;;;;17.40;9.00;;;;;;;-7.88;88.83;99792.41;5051079;28;20201;-84
2022/12/14 05:09:18;;;;;;;16.00;8.13;;;;;;;-7.89;89.11;99798.47;5044870;28;20225;-84
2022/12/14 05:11:52;;;;;;;13.37;7.93;;;;;;;-7.92;89.09;99795.03;5049942;28;20198;-86
2022/12/14 05:14:24;;;;;;;18.37;9.00;;;;;;;-7.93;88.79;99794.16;5058073;28;20205;-85
2022/12/14 05:16:51;;;;;;;14.00;8.23;;;;;;;-7.96;88.55;99786.41;5051330;28;20194;-84
2022/12/14 05:19:19;;;;;;;21.83;9.57;;;;;;;-7.97;89.06;99792.44;5049153;28;20599;-87
2022/12/14 05:21:48;;;;;;;19.03;9.30;;;;;;;-7.98;89.05;99789.88;5050490;28;20221;-84
2022/12/14 05:24:15;;;;;;;29.43;13.23;;;;;;;-8.00;89.09;99783.84;5056895;28;20557;-84
2022/12/14 05:26:42;;;;;;;28.03;12.27;;;;;;;-8.02;88.84;99776.09;5051419;28;20227;-85
2022/12/14 05:29:09;;;;;;;16.23;8.77;;;;;;;-8.05;88.37;99776.94;5049918;28;20305;-85
2022/12/14 05:31:35;;;;;;;12.73;7.73;;;;;;;-8.07;88.18;99775.25;5053367;28;20522;-85
2022/12/14 05:34:02;;;;;;;18.77;8.83;;;;;;;-8.11;88.59;99781.28;5052041;28;20217;-83
2022/12/14 05:36:30;;;;;;;17.17;9.13;;;;;;;-8.15;88.65;99784.75;5043810;28;20212;-84
2022/12/14 05:38:56;;;;;;;18.37;8.50;;;;;;;-8.22;88.64;99775.28;5052250;28;20222;-85
2022/12/14 05:41:23;;;;;;;21.03;9.23;;;;;;;-8.26;88.60;99769.28;5044724;28;20218;-83
2022/12/14 05:43:49;;;;;;;15.70;8.73;;;;;;;-8.28;88.07;99771.00;5052345;28;20474;-86
2022/12/14 05:46:15;;;;;;;14.17;8.27;;;;;;;-8.29;88.72;99777.03;5058442;28;20881;-85
2022/12/14 05:48:42;;;;;;;17.67;9.47;;;;;;;-8.30;88.63;99769.28;5054133;28;20221;-84
2022/12/14 05:51:11;;;;;;;14.47;8.37;;;;;;;-8.32;88.47;99764.13;5055932;28;20441;-86
2022/12/14 05:53:40;;;;;;;13.50;7.97;;;;;;;-8.32;88.54;99756.41;5052567;28;20217;-84
2022/12/14 05:56:08;;;;;;;16.30;8.20;;;;;;;-8.32;88.76;99747.78;5056732;28;20233;-84
2022/12/14 05:58:35;;;;;;;14.07;8.30;;;;;;;-8.32;88.56;99745.19;5049565;28;20253;-85
2022/12/14 06:01:03;;;;;;;16.63;8.77;;;;;;;-8.32;88.50;99751.22;5054747;28;20222;-85
2022/12/14 06:03:30;;;;;;;15.27;8.53;;;;;;;-8.32;89.01;99740.03;5054870;28;20954;-82
2022/12/14 06:06:00;;;;;;;20.47;8.47;;;;;;;-8.32;88.81;99745.19;5043534;28;20206;-84
2022/12/14 06:08:27;;;;;;;16.70;8.73;;;;;;;-8.33;88.31;99739.19;5047560;28;20444;-84
2022/12/14 06:11:02;;;;;;;14.57;8.60;;;;;;;-8.32;89.26;99745.19;5055097;28;20466;-87
2022/12/14 06:13:29;;;;;;;19.57;8.80;;;;;;;-8.33;88.36;99727.97;5046744;28;20197;-85
2022/12/14 06:16:06;;;;;;;15.77;7.73;;;;;;;-8.34;88.71;99732.28;5061144;28;20599;-86
2022/12/14 06:18:32;;;;;;;14.50;7.87;;;;;;;-8.34;88.64;99727.13;5057233;28;20482;-87
2022/12/14 06:20:59;;;;;;;14.60;8.20;;;;;;;-8.33;88.49;99727.97;5053464;28;20244;-86
2022/12/14 06:23:26;;;;;;;15.17;9.43;;;;;;;-8.35;88.90;99721.97;5053740;28;20221;-84
2022/12/14 06:25:53;;;;;;;18.67;9.03;;;;;;;-8.37;88.45;99719.38;5053104;28;20455;-86
2022/12/14 06:28:21;;;;;;;14.90;8.67;;;;;;;-8.35;88.96;99709.06;5050818;28;20454;-86
2022/12/14 06:30:48;;;;;;;18.50;8.70;;;;;;;-8.39;89.20;99705.59;5053369;28;20676;-85
2022/12/14 06:33:14;;;;;;;17.93;8.03;;;;;;;-8.37;89.02;99703.03;5041871;28;20284;-83
2022/12/14 06:35:42;;;;;;;19.93;11.90;;;;;;;-8.38;88.98;99704.75;5039792;28;20679;-80
2022/12/14 06:38:09;;;;;;;23.37;11.10;;;;;;;-8.35;89.73;99698.72;5050390;28;20452;-85
2022/12/14 06:40:35;;;;;;;17.60;8.80;;;;;;;-8.34;89.36;99684.94;5043996;28;20875;-87
2022/12/14 06:43:01;;;;;;;17.77;7.70;;;;;;;-8.33;89.53;99694.41;5047178;28;20222;-86
2022/12/14 06:45:29;;;;;;;19.17;8.87;;;;;;;-8.32;89.37;99688.38;5045168;28;20448;-85
2022/12/14 06:47:57;;;;;;;18.00;8.67;;;;;;;-8.30;89.93;99692.66;5040193;28;20833;-85
2022/12/14 06:50:27;;;;;;;16.17;8.03;;;;;;;-8.28;89.60;99690.94;5053469;28;20565;-85
2022/12/14 06:52:55;;;;;;;19.37;8.90;;;;;;;-8.27;90.09;99692.66;5042644;28;20256;-85
2022/12/14 06:55:21;;;;;;;20.57;9.00;;;;;;;-8.28;89.83;99685.78;5042826;28;20449;-84
2022/12/14 06:57:50;;;;;;;18.87;8.93;;;;;;;-8.26;89.59;99684.03;5042200;28;20210;-85
2022/12/14 07:00:17;;;;;;;19.27;9.60;;;;;;;-8.25;89.77;99684.91;5041454;28;20449;-85
2022/12/14 07:02:45;;;;;;;17.00;8.73;;;;;;;-8.25;89.68;99690.06;5051251;28;20235;-85
2022/12/14 07:05:11;;;;;;;15.60;8.07;;;;;;;-8.25;89.78;99687.50;5047044;28;20201;-85
2022/12/14 07:07:38;;;;;;;19.53;9.73;;;;;;;-8.25;90.28;99683.19;5042378;28;20213;-85
2022/12/14 07:10:05;;;;;;;18.60;8.53;;;;;;;-8.24;90.07;99668.53;5042589;28;20229;-84
2022/12/14 07:12:32;;;;;;;21.83;9.57;;;;;;;-8.24;89.88;99681.47;5049802;28;20452;-86
2022/12/14 07:14:58;;;;;;;21.50;9.70;;;;;;;-8.24;89.44;99684.03;5067370;28;20436;-85
2022/12/14 07:17:25;;;;;;;20.13;10.40;;;;;;;-8.25;90.02;99684.91;5049334;28;20217;-83
2022/12/14 07:19:53;;;;;;;15.63;9.33;;;;;;;-8.26;90.01;99678.88;5049334;28;20237;-84
2022/12/14 07:22:20;;;;;;;14.43;8.77;;;;;;;-8.25;89.54;99678.00;5043357;28;20308;-84
2022/12/14 07:24:46;;;;;;;21.40;10.23;;;;;;;-8.25;89.72;99677.16;5041462;28;20534;-85
2022/12/14 07:27:12;;;;;;;17.60;9.53;;;;;;;-8.26;90.29;99681.47;5050383;28;20448;-84
2022/12/14 07:29:39;;;;;;;16.03;8.63;;;;;;;-8.26;89.55;99678.88;5055811;28;20233;-85
2022/12/14 07:32:05;;;;;;;20.00;9.20;;;;;;;-8.26;89.71;99675.44;5047440;28;20440;-86
2022/12/14 07:34:32;;;;;;;18.37;9.50;;;;;;;-8.27;89.45;99663.38;5044484;28;20209;-83
2022/12/14 07:37:00;;;;;;;17.37;10.13;;;;;;;-8.27;89.37;99656.50;5054674;28;20216;-85
2022/12/14 07:39:26;;;;;;;22.70;10.03;;;;;;;-8.27;89.60;99658.22;5049987;28;20468;-83
2022/12/14 07:41:53;;;;;;;22.73;11.27;;;;;;;-8.25;89.76;99651.34;5055392;28;20232;-85
2022/12/14 07:44:20;;;;;;;21.17;10.23;;;;;;;-8.26;89.62;99658.22;5041141;28;20229;-85
2022/12/14 07:46:46;;;;;;;27.67;12.83;;;;;;;-8.25;89.47;99654.78;5044409;28;20210;-87
2022/12/14 07:49:15;;;;;;;24.30;11.77;;;;;;;-8.25;89.40;99654.78;5041956;28;20252;-86
2022/12/14 07:51:43;;;;;;;19.23;9.63;;;;;;;-8.24;89.95;99655.63;5050988;28;20206;-87
2022/12/14 07:54:12;;;;;;;14.97;8.87;;;;;;;-8.26;89.04;99658.22;5056324;28;20212;-86
2022/12/14 07:56:40;;;;;;;19.33;9.23;;;;;;;-8.28;89.36;99652.19;5053489;28;20293;-86
2022/12/14 07:59:10;;;;;;;17.47;9.00;;;;;;;-8.31;89.02;99648.75;5032452;28;20663;-85
2022/12/14 08:01:37;;;;;;;17.77;8.33;;;;;;;-8.31;89.45;99652.19;5047806;28;20229;-86
2022/12/14 08:04:06;;;;;;;15.00;7.77;;;;;;;-8.32;89.04;99649.66;5050346;28;20213;-84
2022/12/14 08:06:33;;;;;;;15.77;7.80;;;;;;;-8.30;89.18;99663.38;5051211;28;20206;-84
2022/12/14 08:09:00;;;;;;;18.87;8.53;;;;;;;-8.30;89.03;99660.81;5040345;28;20457;-83
2022/12/14 08:11:29;;;;;;;16.87;8.13;;;;;;;-8.27;89.20;99661.66;5047253;28;20244;-83
2022/12/14 08:13:56;;;;;;;10.60;7.03;;;;;;;-8.24;89.59;99655.63;5045424;28;20448;-85
2022/12/14 08:16:23;;;;;;;19.67;9.40;;;;;;;-8.21;89.84;99653.88;5046110;28;20293;-84
2022/12/14 08:18:52;;;;;;;25.67;11.07;;;;;;;-8.18;89.72;99648.69;5039887;28;20752;-85
2022/12/14 08:21:20;;;;;;;21.40;11.57;;;;;;;-8.14;90.14;99654.72;5054696;28;20209;-84
2022/12/14 08:23:46;;;;;;;25.10;11.23;;;;;;;-8.11;89.50;99645.25;5057168;28;20229;-87
2022/12/14 08:26:13;;;;;;;25.97;12.33;;;;;;;-8.02;89.72;99656.38;5054449;28;20212;-86
2022/12/14 08:28:41;;;;;;;22.40;11.57;;;;;;;-7.99;90.61;99646.03;5049422;28;20724;-86
2022/12/14 08:31:09;;;;;;;21.93;10.53;;;;;;;-7.94;90.22;99647.75;5056729;28;20213;-89
2022/12/14 08:33:37;;;;;;;25.43;13.20;;;;;;;-7.92;90.71;99648.59;5056862;28;20206;-88
2022/12/14 08:36:08;;;;;;;24.53;11.80;;;;;;;-7.88;90.13;99645.09;5058303;28;20205;-87
2022/12/14 08:38:34;;;;;;;27.80;11.73;;;;;;;-7.82;90.86;99645.09;5057710;28;20256;-84
2022/12/14 08:41:05;;;;;;;21.97;9.83;;;;;;;-7.78;90.41;99651.97;5058429;28;20224;-86
2022/12/14 08:43:31;;;;;;;20.70;10.80;;;;;;;-7.75;90.36;99641.59;5060059;28;20217;-87
2022/12/14 08:46:00;;;;;;;19.10;9.33;;;;;;;-7.70;91.05;99645.00;5050292;28;20532;-87
2022/12/14 08:48:26;;;;;;;19.20;9.53;;;;;;;-7.66;90.43;99644.97;5039723;28;20245;-87
2022/12/14 08:50:53;;;;;;;19.40;10.33;;;;;;;-7.61;91.11;99645.81;5059166;28;20212;-86
2022/12/14 08:53:19;;;;;;;20.83;9.63;;;;;;;-7.57;90.83;99644.94;5060114;28;20201;-85
2022/12/14 08:55:46;;;;;;;20.80;9.63;;;;;;;-7.52;91.02;99638.00;5056975;28;20209;-86
2022/12/14 08:58:13;;;;;;;24.10;10.50;;;;;;;-7.48;91.05;99645.72;5039102;28;20225;-87
2022/12/14 09:00:39;;;;;;;18.33;9.87;;;;;;;-7.45;91.31;99644.84;5038255;28;20206;-87
2022/12/14 09:03:07;;;;;;;16.13;9.63;;;;;;;-7.40;90.97;99643.97;5049429;28;20221;-86
2022/12/14 09:05:34;;;;;;;19.53;10.53;;;;;;;-7.38;91.41;99631.88;5055006;28;20652;-87
2022/12/14 09:08:01;;;;;;;19.20;10.53;;;;;;;-7.31;91.66;99634.41;5054470;28;20218;-85
2022/12/14 09:10:27;;;;;;;21.83;10.90;;;;;;;-7.29;91.79;99636.09;5058473;28;20232;-87
2022/12/14 09:12:54;;;;;;;23.63;11.43;;;;;;;-7.23;91.32;99637.78;5069753;28;20671;-87
2022/12/14 09:15:20;;;;;;;22.07;11.33;;;;;;;-7.18;91.61;99643.81;5052297;28;20670;-88
2022/12/14 09:17:48;;;;;;;20.97;11.60;;;;;;;-7.16;91.75;99636.84;5056950;28;20648;-85
2022/12/14 09:20:17;;;;;;;18.67;10.73;;;;;;;-7.12;91.36;99623.03;5058077;28;20229;-87
2022/12/14 09:22:44;;;;;;;19.50;10.90;;;;;;;-7.06;92.10;99634.19;5064872;28;20221;-86
2022/12/14 09:25:11;;;;;;;16.70;10.57;;;;;;;-7.01;92.27;99627.25;5063707;28;20208;-88
2022/12/14 09:27:38;;;;;;;19.47;10.77;;;;;;;-6.95;91.62;99641.00;5059459;28;20259;-87
2022/12/14 09:30:05;;;;;;;23.20;11.07;;;;;;;-6.90;91.81;99636.66;5060403;28;20714;-87
2022/12/14 09:32:31;;;;;;;18.70;9.73;;;;;;;-6.86;92.22;99643.50;5059381;28;20247;-89
2022/12/14 09:34:58;;;;;;;22.63;11.37;;;;;;;-6.82;92.28;99640.91;5053222;28;20198;-86
2022/12/14 09:37:26;;;;;;;23.53;11.80;;;;;;;-6.79;92.20;99645.16;5078654;28;20262;-86
2022/12/14 09:39:53;;;;;;;20.83;11.00;;;;;;;-6.75;91.86;99636.50;5056395;28;20225;-85
2022/12/14 09:42:45;;;;;;;24.77;12.47;;;;;;;-6.71;91.77;99635.59;5051712;28;20236;-87
2022/12/14 09:45:17;;;;;;;26.03;12.53;;;;;;;-6.66;92.38;99637.28;5058268;28;20221;-86
2022/12/14 09:47:51;;;;;;;20.13;11.70;;;;;;;-6.62;91.98;99634.63;5050204;28;20207;-86
2022/12/14 09:50:21;;;;;;;21.73;12.10;;;;;;;-6.58;92.46;99632.00;5052160;28;20222;-86
2022/12/14 09:52:51;;;;;;;20.83;11.10;;;;;;;-6.54;92.08;99627.66;5055282;28;20213;-84
2022/12/14 09:55:22;;;;;;;25.73;11.80;;;;;;;-6.51;92.60;99623.31;5052264;28;20209;-85
2022/12/14 09:57:58;;;;;;;27.60;12.47;;;;;;;-6.46;92.56;99616.34;5043533;28;20209;-88
2022/12/14 10:00:30;;;;;;;24.73;10.50;;;;;;;-6.42;92.58;99617.16;5049878;28;20307;-85
2022/12/14 10:03:20;;;;;;;22.17;10.77;;;;;;;-6.37;92.41;99617.97;5050150;28;20210;-83
2022/12/14 10:06:02;;;;;;;21.33;10.73;;;;;;;-6.32;92.52;99619.63;5044631;28;20567;-87
2022/12/14 10:08:35;;;;;;;19.07;11.23;;;;;;;-6.29;92.82;99620.47;5049971;28;20213;-84
2022/12/14 10:11:07;;;;;;;23.13;10.20;;;;;;;-6.27;92.34;99617.00;5048724;28;20194;-86
2022/12/14 10:13:49;;;;;;;23.17;11.33;;;;;;;-6.24;92.33;99627.28;5053640;28;20645;-87
2022/12/14 10:16:25;;;;;;;22.17;11.20;;;;;;;-6.20;92.45;99622.94;5040381;28;20250;-84
2022/12/14 10:19:10;;;;;;;21.27;10.93;;;;;;;-6.18;92.19;99622.06;5041011;28;20241;-83
2022/12/14 10:21:43;;;;;;;20.90;10.77;;;;;;;-6.17;92.17;99612.53;5041509;28;20224;-84
2022/12/14 10:24:22;;;;;;;20.97;11.53;;;;;;;-6.14;92.36;99608.19;5040414;28;20920;-80
2022/12/14 10:26:51;;;;;;;23.03;11.60;;;;;;;-6.12;92.08;99608.16;5048378;28;20207;-80
2022/12/14 10:29:26;;;;;;;23.23;10.57;;;;;;;-6.09;92.07;99619.31;5052269;28;20217;-80
2022/12/14 10:32:02;;;;;;;21.27;11.37;;;;;;;-6.05;92.55;99614.97;5052710;28;20200;-80
2022/12/14 10:34:31;;;;;;;18.47;10.33;;;;;;;-6.02;92.32;99612.34;5041738;28;20200;-80
2022/12/14 10:37:08;;;;;;;18.70;11.83;;;;;;;-6.00;91.97;99606.25;5045275;28;20563;-80
2022/12/14 10:39:48;;;;;;;20.37;11.17;;;;;;;-5.96;92.31;99601.91;5044236;28;20225;-81
2022/12/14 10:42:24;;;;;;;22.67;12.00;;;;;;;-5.92;92.27;99606.19;5043363;28;20260;-83
2022/12/14 10:45:02;;;;;;;21.83;11.80;;;;;;;-5.89;91.93;99605.25;5040804;28;20209;-80
2022/12/14 10:47:51;;;;;;;23.63;11.03;;;;;;;-5.86;92.33;99608.63;5050643;28;20472;-81
2022/12/14 10:50:27;;;;;;;20.13;10.83;;;;;;;-5.85;91.97;99610.34;5045608;28;20221;-81
2022/12/14 10:52:55;;;;;;;21.83;11.37;;;;;;;-5.85;91.88;99599.97;5047814;28;20212;-81
2022/12/14 10:55:31;;;;;;;20.93;11.93;;;;;;;-5.84;91.82;99612.06;5048473;28;20232;-80
2022/12/14 10:57:58;;;;;;;24.63;11.67;;;;;;;-5.83;91.53;99598.22;5049217;28;20844;-81
2022/12/14 11:00:24;;;;;;;19.13;11.30;;;;;;;-5.81;91.59;99601.66;5052051;28;20237;-81
2022/12/14 11:02:54;;;;;;;22.10;12.37;;;;;;;-5.80;91.75;99592.13;5050780;28;20226;-81
2022/12/14 11:05:36;;;;;;;22.13;11.67;;;;;;;-5.80;91.48;99571.41;5050808;28;20207;-83
2022/12/14 11:08:03;;;;;;;19.23;10.77;;;;;;;-5.78;91.44;99575.69;5048162;28;20239;-82
2022/12/14 11:10:35;;;;;;;23.50;11.00;;;;;;;-5.76;91.44;99579.13;5050921;28;20237;-81
2022/12/14 11:13:06;;;;;;;21.00;11.07;;;;;;;-5.72;91.22;99585.09;5044342;28;20210;-82
2022/12/14 11:15:36;;;;;;;23.70;12.40;;;;;;;-5.72;91.13;99579.91;5048839;28;20206;-81
2022/12/14 11:18:20;;;;;;;24.20;12.30;;;;;;;-5.69;91.33;99578.13;5047929;28;20339;-82
2022/12/14 11:21:04;;;;;;;22.67;11.10;;;;;;;-5.66;91.18;99572.91;5044242;28;20637;-81
2022/12/14 11:23:36;;;;;;;24.10;11.80;;;;;;;-5.61;91.09;99583.22;5038846;28;20226;-81
2022/12/14 11:26:07;;;;;;;24.17;12.63;;;;;;;-5.58;91.26;99571.94;5045860;28;20209;-82
2022/12/14 11:28:47;;;;;;;26.90;12.43;;;;;;;-5.55;91.19;99574.50;5051266;28;20232;-82
2022/12/14 11:31:22;;;;;;;24.20;12.80;;;;;;;-5.53;91.56;99567.50;5048659;28;20209;-80
2022/12/14 11:33:51;;;;;;;26.10;13.50;;;;;;;-5.45;91.82;99570.84;5045389;28;20205;-81
2022/12/14 11:36:26;;;;;;;31.87;15.07;;;;;;;-5.36;92.27;99555.13;5039525;28;20573;-81
2022/12/14 11:38:56;;;;;;;22.57;13.03;;;;;;;-5.28;92.42;99551.53;5045887;28;20229;-81
2022/12/14 11:41:28;;;;;;;27.80;14.47;;;;;;;-5.19;92.39;99547.91;5051881;28;20213;-81
2022/12/14 11:44:06;;;;;;;24.50;13.60;;;;;;;-5.08;92.93;99552.94;5048771;28;20657;-82
2022/12/14 11:46:45;;;;;;;21.60;13.50;;;;;;;-5.00;93.08;99556.22;5037612;28;20198;-82
2022/12/14 11:49:25;;;;;;;23.13;13.80;;;;;;;-4.94;93.19;99551.78;5047638;28;20228;-81